Time;durP1;ratioP1;P1;durP2;ratioP2;P2;SDS_P1;SDS_P2;PMS_P1;PMS_P2;Temp;Humidity;BMP_temperature;BMP_pressure;BME280_temperature;BME280_humidity;BME280_pressure;Samples;Min_cycle;Max_cycle;Signal;HPM_P1;HPM_P2
2021/05/31 02:48:13;;;;;;;8.48;4.85;;;8.00;99.90;;;;;;3733357;22;90076;-82
2021/05/31 02:50:39;;;;;;;6.07;4.50;;;8.00;99.90;;;;;;4935121;28;86997;-86
2021/05/31 02:53:06;;;;;;;11.18;5.07;;;7.90;99.90;;;;;;4951886;28;87097;-84
2021/05/31 02:55:33;;;;;;;9.18;5.30;;;7.90;99.90;;;;;;4956180;28;87616;-84
2021/05/31 02:57:59;;;;;;;6.85;4.78;;;7.90;99.90;;;;;;4960922;28;87367;-84
2021/05/31 03:00:27;;;;;;;7.28;4.47;;;7.80;99.90;;;;;;4964473;28;86737;-84
2021/05/31 03:02:54;;;;;;;6.43;5.40;;;7.80;99.90;;;;;;4952974;28;86847;-86
2021/05/31 03:05:28;;;;;;;7.18;4.95;;;7.80;99.90;;;;;;4953362;28;87531;-86
2021/05/31 03:07:58;;;;;;;8.65;4.57;;;7.70;99.90;;;;;;4969820;28;87510;-84
2021/05/31 03:10:25;;;;;;;7.70;5.00;;;7.70;99.90;;;;;;4948963;28;88048;-84
2021/05/31 03:12:52;;;;;;;6.90;5.03;;;7.70;99.90;;;;;;4960076;28;87045;-84
2021/05/31 03:15:18;;;;;;;8.50;4.95;;;7.70;99.90;;;;;;4958385;28;87496;-85
2021/05/31 03:17:48;;;;;;;7.70;5.10;;;7.60;99.90;;;;;;4954884;28;87209;-85
2021/05/31 03:20:18;;;;;;;7.77;5.43;;;7.60;99.90;;;;;;4935299;28;86827;-85
2021/05/31 03:22:44;;;;;;;7.03;5.40;;;7.60;99.90;;;;;;4969785;28;86936;-84
2021/05/31 03:25:11;;;;;;;8.63;5.05;;;7.60;99.90;;;;;;4966425;28;86886;-85
2021/05/31 03:27:37;;;;;;;7.13;5.03;;;7.60;99.90;;;;;;4967747;28;87402;-85
2021/05/31 03:30:09;;;;;;;7.10;5.35;;;7.50;99.90;;;;;;4955314;28;86901;-87
2021/05/31 03:32:36;;;;;;;7.53;5.13;;;7.60;99.90;;;;;;4962870;28;87052;-85
2021/05/31 03:35:03;;;;;;;9.50;6.43;;;7.50;99.90;;;;;;4962291;28;88593;-84
2021/05/31 03:37:28;;;;;;;9.55;6.13;;;7.50;99.90;;;;;;4965223;28;87145;-85
2021/05/31 03:39:54;;;;;;;7.22;5.63;;;7.50;99.90;;;;;;4969947;28;87024;-87
2021/05/31 03:42:20;;;;;;;8.93;6.00;;;7.50;99.90;;;;;;4955979;28;87309;-85
2021/05/31 03:44:45;;;;;;;7.55;5.07;;;7.40;99.90;;;;;;4957408;28;87405;-86
2021/05/31 03:47:11;;;;;;;7.85;5.57;;;7.50;99.90;;;;;;4955188;28;87832;-86
2021/05/31 03:49:37;;;;;;;8.65;5.40;;;7.50;99.90;;;;;;4953097;28;86603;-85
2021/05/31 03:52:03;;;;;;;8.38;5.47;;;7.50;99.90;;;;;;4962138;28;86318;-85
2021/05/31 03:54:28;;;;;;;6.47;4.95;;;7.50;99.90;;;;;;4963584;28;87080;-86
2021/05/31 03:56:55;;;;;;;8.73;5.65;;;7.50;99.90;;;;;;4954942;28;87041;-86
2021/05/31 03:59:21;;;;;;;7.88;5.38;;;7.50;99.90;;;;;;4960828;28;87177;-83
2021/05/31 04:01:48;;;;;;;7.13;5.43;;;7.60;99.90;;;;;;4968038;28;87045;-85
2021/05/31 04:04:14;;;;;;;6.65;5.00;;;7.60;99.90;;;;;;4957827;28;89667;-84
2021/05/31 04:11:52;;;;;;;8.30;5.07;;;7.70;99.90;;;;;;4970239;28;86579;-85
2021/05/31 04:14:19;;;;;;;7.97;5.32;;;7.80;99.90;;;;;;4964559;28;87090;-84
2021/05/31 04:16:51;;;;;;;6.45;4.75;;;7.80;99.90;;;;;;4964523;28;87537;-85
2021/05/31 04:19:18;;;;;;;6.43;4.70;;;7.90;99.90;;;;;;4960943;28;86823;-85
2021/05/31 04:21:47;;;;;;;7.07;4.97;;;8.10;99.90;;;;;;4965441;28;87174;-87
2021/05/31 04:24:13;;;;;;;7.80;5.00;;;8.20;99.90;;;;;;4958477;28;88106;-84
2021/05/31 04:26:40;;;;;;;6.20;4.68;;;8.30;99.90;;;;;;4969192;28;87637;-83
2021/05/31 04:29:08;;;;;;;6.53;5.13;;;8.40;99.90;;;;;;4970326;28;86885;-84
2021/05/31 04:31:35;;;;;;;5.95;4.38;;;8.50;99.90;;;;;;4952929;28;86920;-86
2021/05/31 04:34:01;;;;;;;5.88;4.47;;;8.60;99.90;;;;;;4957077;28;86808;-86
2021/05/31 04:36:31;;;;;;;8.82;5.03;;;8.70;99.90;;;;;;4971437;28;86892;-85
2021/05/31 04:38:58;;;;;;;5.93;4.17;;;8.80;99.90;;;;;;4972227;28;87196;-82
2021/05/31 04:41:24;;;;;;;4.30;3.88;;;9.00;99.90;;;;;;4972678;28;86104;-84
2021/05/31 04:43:49;;;;;;;6.30;4.05;;;9.10;99.90;;;;;;4959153;28;87644;-85
2021/05/31 04:46:15;;;;;;;4.90;4.35;;;9.30;97.50;;;;;;4949614;28;89063;-85
2021/05/31 04:48:41;;;;;;;5.07;3.70;;;9.30;98.10;;;;;;4964409;28;88423;-85
2021/05/31 04:51:07;;;;;;;5.20;3.60;;;9.40;97.80;;;;;;4951413;28;87313;-84
2021/05/31 04:53:33;;;;;;;6.07;4.03;;;9.50;97.80;;;;;;4972489;28;87054;-84
2021/05/31 04:56:03;;;;;;;6.57;3.80;;;9.60;97.50;;;;;;4958483;28;87028;-86
2021/05/31 04:58:28;;;;;;;4.78;4.18;;;9.70;97.10;;;;;;4954347;28;87177;-85
2021/05/31 05:00:55;;;;;;;5.90;3.90;;;9.80;96.80;;;;;;4959773;28;86701;-84
2021/05/31 05:03:20;;;;;;;5.32;3.65;;;9.90;96.70;;;;;;4966973;28;88284;-87
2021/05/31 05:05:48;;;;;;;6.82;4.18;;;10.00;96.80;;;;;;4960753;28;87065;-85
2021/05/31 05:08:15;;;;;;;6.63;4.28;;;10.00;96.40;;;;;;4963647;28;86451;-85
2021/05/31 05:10:40;;;;;;;7.15;4.90;;;10.10;95.70;;;;;;4954057;28;87053;-85
2021/05/31 05:13:06;;;;;;;5.68;4.22;;;10.20;95.70;;;;;;4951594;28;89523;-83
2021/05/31 05:15:33;;;;;;;5.68;4.15;;;10.30;95.70;;;;;;4955370;28;87175;-85
2021/05/31 05:17:59;;;;;;;5.60;4.40;;;10.40;95.90;;;;;;4955785;28;86824;-85
2021/05/31 05:20:27;;;;;;;6.53;4.70;;;10.50;95.60;;;;;;4957559;28;86667;-86
2021/05/31 05:22:53;;;;;;;5.20;4.38;;;10.50;96.00;;;;;;4952771;28;86993;-83
2021/05/31 05:25:20;;;;;;;7.03;4.35;;;10.60;96.20;;;;;;4957185;28;89709;-84
2021/05/31 05:27:49;;;;;;;5.15;4.60;;;10.70;96.10;;;;;;4956676;28;87007;-84
2021/05/31 05:30:18;;;;;;;7.25;4.80;;;10.70;96.70;;;;;;4958950;28;86344;-88
2021/05/31 05:32:48;;;;;;;7.78;5.20;;;10.80;96.50;;;;;;4948038;28;90319;-88
2021/05/31 05:35:21;;;;;;;8.00;4.68;;;10.90;96.70;;;;;;4965551;28;87228;-86
2021/05/31 05:38:05;;;;;;;7.32;4.95;;;11.00;97.20;;;;;;4966410;28;87888;-89
2021/05/31 05:48:30;;;;;;;6.82;5.05;;;11.30;96.60;;;;;;4961242;28;87075;-89
2021/05/31 05:51:08;;;;;;;7.53;5.45;;;11.40;97.50;;;;;;4969955;28;87328;-87
2021/05/31 05:53:36;;;;;;;8.35;5.13;;;11.50;97.40;;;;;;4946683;28;91875;-88
2021/05/31 05:56:04;;;;;;;7.07;4.45;;;11.60;97.20;;;;;;4961250;28;86939;-87
2021/05/31 05:58:30;;;;;;;8.30;5.80;;;11.80;97.20;;;;;;4943238;28;87126;-89
2021/05/31 06:01:01;;;;;;;8.00;6.13;;;11.90;96.60;;;;;;4956547;28;86956;-88
2021/05/31 06:03:27;;;;;;;7.35;5.95;;;12.00;96.30;;;;;;4950849;28;90768;-89
2021/05/31 06:05:54;;;;;;;6.80;4.60;;;12.00;96.60;;;;;;4954570;28;88894;-88
2021/05/31 06:08:20;;;;;;;7.32;5.30;;;12.10;96.20;;;;;;4967685;28;87008;-86
2021/05/31 06:10:46;;;;;;;9.85;5.38;;;12.20;96.20;;;;;;4955128;28;86850;-86
2021/05/31 06:13:12;;;;;;;7.25;5.40;;;12.30;95.70;;;;;;4958855;28;87497;-88
2021/05/31 06:15:38;;;;;;;8.40;5.32;;;12.40;95.70;;;;;;4938094;28;90571;-87
2021/05/31 06:18:05;;;;;;;5.70;4.45;;;12.40;96.20;;;;;;4959209;28;86965;-87
2021/05/31 06:20:31;;;;;;;8.95;5.22;;;12.50;96.20;;;;;;4970672;28;86259;-90
2021/05/31 06:22:56;;;;;;;9.18;4.95;;;12.60;95.60;;;;;;4962063;28;87135;-90
2021/05/31 06:25:22;;;;;;;6.28;4.97;;;12.80;96.00;;;;;;4955629;28;86845;-89
2021/05/31 06:27:48;;;;;;;6.05;4.97;;;12.80;96.20;;;;;;4955235;28;87746;-86
2021/05/31 06:30:14;;;;;;;7.30;5.38;;;13.00;96.30;;;;;;4945236;28;86972;-87
2021/05/31 06:32:40;;;;;;;7.13;5.18;;;13.10;96.10;;;;;;4958038;28;88572;-89
2021/05/31 06:35:06;;;;;;;9.20;5.15;;;13.20;95.00;;;;;;4944911;28;89505;-87
2021/05/31 06:37:38;;;;;;;6.53;5.43;;;13.20;95.50;;;;;;4965172;28;87054;-90
2021/05/31 06:40:07;;;;;;;9.45;5.50;;;13.40;95.50;;;;;;4954371;28;87102;-88
2021/05/31 06:42:32;;;;;;;5.65;5.05;;;13.50;94.90;;;;;;4951218;28;87095;-88
2021/05/31 06:44:58;;;;;;;5.93;5.05;;;13.50;94.70;;;;;;4951110;28;88093;-88
2021/05/31 06:47:24;;;;;;;5.60;5.05;;;13.70;93.30;;;;;;4951004;28;87168;-87
2021/05/31 06:49:51;;;;;;;7.10;4.82;;;13.70;93.60;;;;;;4957480;28;86987;-89
2021/05/31 06:52:17;;;;;;;5.75;4.80;;;13.80;93.80;;;;;;4955916;28;88004;-88
2021/05/31 06:54:42;;;;;;;6.63;4.82;;;13.90;93.40;;;;;;4958177;28;87891;-87
2021/05/31 06:57:08;;;;;;;7.20;5.50;;;14.00;92.70;;;;;;4957284;28;86902;-89
2021/05/31 06:59:34;;;;;;;6.85;5.20;;;14.10;93.50;;;;;;4963514;28;87029;-87
2021/05/31 07:01:59;;;;;;;6.40;5.10;;;14.20;92.70;;;;;;4954689;28;86824;-89
2021/05/31 07:04:25;;;;;;;9.10;5.10;;;14.20;92.00;;;;;;4961656;28;88163;-87
2021/05/31 07:06:51;;;;;;;5.43;4.88;;;14.30;91.90;;;;;;4936111;28;87285;-85
2021/05/31 07:09:16;;;;;;;6.00;5.35;;;14.40;91.90;;;;;;4954558;28;86089;-88
2021/05/31 07:11:45;;;;;;;6.82;5.15;;;14.50;91.40;;;;;;4955435;28;87345;-87
2021/05/31 07:14:17;;;;;;;7.45;5.80;;;14.60;91.30;;;;;;4954668;28;87161;-87
2021/05/31 07:16:44;;;;;;;6.88;5.20;;;14.70;90.60;;;;;;4954452;28;87990;-89
2021/05/31 07:19:12;;;;;;;6.57;5.07;;;14.80;91.20;;;;;;4961986;28;87051;-86
2021/05/31 07:21:42;;;;;;;7.28;5.50;;;14.90;90.60;;;;;;4951393;28;87034;-87
2021/05/31 07:24:09;;;;;;;7.10;4.88;;;15.00;91.00;;;;;;4955417;28;87365;-88
2021/05/31 07:26:37;;;;;;;8.55;5.07;;;15.20;91.10;;;;;;4963781;28;87015;-85
2021/05/31 07:29:06;;;;;;;7.30;5.68;;;15.30;90.80;;;;;;4949012;28;86623;-87
2021/05/31 07:31:32;;;;;;;6.47;5.50;;;15.40;90.20;;;;;;4959304;28;87227;-87
2021/05/31 07:33:57;;;;;;;8.38;5.63;;;15.40;90.50;;;;;;4960512;28;87238;-87
2021/05/31 07:36:24;;;;;;;6.88;4.75;;;15.50;89.10;;;;;;4947546;28;86981;-90
2021/05/31 07:38:50;;;;;;;6.55;5.38;;;15.60;89.10;;;;;;4951124;28;87084;-86
2021/05/31 07:41:17;;;;;;;6.18;4.50;;;15.70;88.40;;;;;;4956722;28;88234;-89
2021/05/31 07:43:43;;;;;;;6.70;4.93;;;15.80;88.30;;;;;;4953770;28;87908;-87
2021/05/31 07:46:09;;;;;;;6.32;4.82;;;16.00;85.20;;;;;;4961998;28;86252;-85
2021/05/31 07:48:35;;;;;;;5.07;4.57;;;15.90;85.90;;;;;;4949599;28;86968;-86
2021/05/31 07:51:17;;;;;;;5.60;5.03;;;16.00;83.30;;;;;;4952058;28;86931;-86
2021/05/31 07:53:52;;;;;;;6.03;4.82;;;16.10;81.80;;;;;;4929356;28;90001;-87
2021/05/31 07:56:19;;;;;;;8.05;5.20;;;16.10;83.90;;;;;;4952346;28;86642;-88
2021/05/31 07:58:46;;;;;;;6.43;5.30;;;16.10;84.40;;;;;;4958641;28;86389;-88
2021/05/31 08:01:12;;;;;;;5.63;4.70;;;16.30;83.40;;;;;;4933741;28;91657;-87
2021/05/31 08:03:40;;;;;;;7.10;4.55;;;16.40;82.80;;;;;;4947198;28;87328;-88
2021/05/31 08:06:06;;;;;;;7.93;5.10;;;16.50;80.40;;;;;;4960800;28;87869;-89
2021/05/31 08:08:32;;;;;;;5.10;4.35;;;16.70;80.30;;;;;;4962630;28;86855;-89
2021/05/31 08:10:58;;;;;;;7.57;5.43;;;16.80;79.30;;;;;;4952936;28;86935;-89
2021/05/31 08:13:24;;;;;;;5.93;5.20;;;16.90;78.20;;;;;;4951599;28;86946;-88
2021/05/31 08:15:51;;;;;;;6.70;4.50;;;17.00;78.40;;;;;;4944085;28;87077;-88
2021/05/31 08:18:18;;;;;;;5.32;4.75;;;17.10;77.50;;;;;;4954172;28;86945;-87
2021/05/31 08:20:44;;;;;;;8.68;5.05;;;17.30;77.40;;;;;;4958362;28;87438;-87
2021/05/31 08:23:10;;;;;;;5.30;4.72;;;17.30;75.50;;;;;;4967210;28;86738;-87
2021/05/31 08:25:36;;;;;;;6.63;4.70;;;17.50;71.90;;;;;;4966968;28;86730;-88
2021/05/31 08:28:03;;;;;;;5.63;4.90;;;17.50;74.00;;;;;;4947841;28;86991;-88
2021/05/31 08:30:33;;;;;;;5.38;4.85;;;17.60;72.60;;;;;;4954033;28;87843;-90
2021/05/31 08:33:01;;;;;;;6.45;5.65;;;17.70;71.20;;;;;;4962786;28;89283;-89
2021/05/31 08:35:26;;;;;;;6.50;4.70;;;18.00;72.20;;;;;;4957308;28;86915;-87
2021/05/31 08:37:53;;;;;;;6.45;4.60;;;18.10;70.80;;;;;;4939923;28;87522;-88
2021/05/31 08:40:20;;;;;;;5.30;4.65;;;18.30;69.30;;;;;;4934907;28;89372;-88
2021/05/31 08:42:46;;;;;;;5.15;4.68;;;18.60;68.50;;;;;;4962935;28;87199;-89
2021/05/31 08:45:17;;;;;;;5.65;4.90;;;18.90;68.60;;;;;;4963960;28;86940;-89
2021/05/31 08:47:49;;;;;;;6.30;4.25;;;19.30;66.90;;;;;;4953873;28;86161;-88
2021/05/31 08:50:19;;;;;;;5.93;4.75;;;19.60;64.60;;;;;;4958091;28;87749;-89
2021/05/31 08:52:45;;;;;;;4.57;4.18;;;20.00;64.40;;;;;;4958331;28;88057;-88
2021/05/31 08:55:13;;;;;;;4.40;4.00;;;20.30;61.50;;;;;;4958990;28;87888;-90
2021/05/31 08:57:39;;;;;;;4.57;4.18;;;20.60;59.70;;;;;;4963716;28;86338;-89
2021/05/31 09:00:09;;;;;;;6.47;4.63;;;21.00;56.60;;;;;;4964694;28;86961;-88
2021/05/31 09:02:35;;;;;;;4.70;4.20;;;21.40;56.00;;;;;;4970203;28;90307;-88
2021/05/31 09:05:02;;;;;;;4.15;3.75;;;22.20;55.00;;;;;;4965502;28;86961;-88
2021/05/31 09:07:28;;;;;;;5.78;5.38;;;;;;;;;;4967074;28;86832;-90
2021/05/31 09:09:54;;;;;;;4.20;3.80;;;23.80;52.30;;;;;;4970975;28;86907;-91
2021/05/31 09:12:23;;;;;;;5.55;4.40;;;25.40;49.10;;;;;;4984583;28;87200;-91
2021/05/31 09:14:57;;;;;;;5.03;4.22;;;26.50;44.90;;;;;;4981576;28;86415;-92
2021/05/31 09:17:28;;;;;;;6.55;4.10;;;27.70;42.10;;;;;;4980182;28;86389;-90
2021/05/31 09:19:54;;;;;;;4.28;3.97;;;28.90;41.20;;;;;;4980657;28;88145;-91
2021/05/31 09:22:21;;;;;;;4.10;3.72;;;30.30;40.50;;;;;;4973935;28;88432;-91
2021/05/31 09:24:57;;;;;;;4.45;3.85;;;31.30;36.00;;;;;;4986199;28;86616;-88
2021/05/31 09:27:23;;;;;;;4.15;3.85;;;32.10;34.50;;;;;;4973662;28;86966;-89
2021/05/31 09:30:00;;;;;;;4.07;3.67;;;33.00;33.20;;;;;;4949501;28;87141;-87
2021/05/31 09:32:27;;;;;;;6.55;5.10;;;34.20;31.80;;;;;;4951319;28;87021;-88
2021/05/31 09:35:04;;;;;;;7.57;3.97;;;35.30;32.10;;;;;;4962177;28;87001;-88
2021/05/31 09:37:31;;;;;;;9.13;7.03;;;36.20;30.90;;;;;;4968981;28;86185;-88
2021/05/31 09:40:03;;;;;;;5.55;4.25;;;37.40;30.20;;;;;;4935799;28;90648;-87
2021/05/31 09:42:29;;;;;;;4.70;4.22;;;37.70;28.30;;;;;;4961737;28;88325;-87
2021/05/31 09:45:07;;;;;;;4.50;3.60;;;38.60;27.90;;;;;;4962244;28;87556;-88
2021/05/31 09:47:36;;;;;;;4.13;3.83;;;38.90;26.80;;;;;;4937762;28;87103;-85
2021/05/31 09:50:04;;;;;;;4.43;4.03;;;39.40;27.70;;;;;;4949328;28;86981;-88
2021/05/31 09:52:29;;;;;;;4.60;4.15;;;40.00;26.60;;;;;;4957575;28;86948;-86
2021/05/31 09:54:55;;;;;;;4.60;4.20;;;40.70;26.50;;;;;;4931643;28;87164;-87
2021/05/31 09:57:26;;;;;;;4.57;4.18;;;40.50;26.20;;;;;;4944856;28;86926;-85
2021/05/31 10:00:00;;;;;;;4.32;4.00;;;40.90;26.40;;;;;;4964688;28;87810;-88
2021/05/31 10:10:34;;;;;;;4.38;4.00;;;43.00;26.00;;;;;;4986617;28;88395;-87
2021/05/31 10:13:00;;;;;;;4.30;3.88;;;43.00;25.30;;;;;;4989389;28;87112;-85
2021/05/31 10:15:31;;;;;;;4.65;4.25;;;42.90;24.80;;;;;;4984710;28;86727;-86
2021/05/31 10:17:59;;;;;;;4.93;4.53;;;42.50;24.70;;;;;;4969583;28;86212;-85
2021/05/31 10:20:27;;;;;;;4.70;4.30;;;42.50;24.70;;;;;;4959973;28;89144;-87
2021/05/31 10:22:53;;;;;;;4.20;3.90;;;42.50;25.60;;;;;;4966649;28;89083;-85
2021/05/31 10:25:20;;;;;;;4.53;4.22;;;42.90;25.30;;;;;;4976010;28;86230;-83
2021/05/31 10:27:51;;;;;;;4.35;3.95;;;43.30;24.60;;;;;;4970535;28;85989;-84
2021/05/31 10:30:19;;;;;;;4.53;3.95;;;43.40;24.20;;;;;;4971234;28;87202;-83
2021/05/31 10:32:45;;;;;;;4.18;3.88;;;43.90;24.90;;;;;;4980336;28;86973;-85
2021/05/31 10:35:17;;;;;;;4.20;3.90;;;43.80;24.90;;;;;;4970574;28;87021;-83
2021/05/31 10:37:54;;;;;;;5.07;4.68;;;44.30;24.10;;;;;;4979759;28;86220;-84
2021/05/31 10:40:29;;;;;;;4.55;4.15;;;44.80;23.60;;;;;;4976684;28;87686;-83
2021/05/31 10:42:56;;;;;;;4.70;4.40;;;44.70;23.80;;;;;;4984098;28;86218;-85
2021/05/31 10:45:22;;;;;;;4.05;3.80;;;44.70;24.10;;;;;;4972712;28;86436;-84
2021/05/31 10:47:59;;;;;;;4.57;4.18;;;44.20;23.90;;;;;;4986972;28;87094;-85
2021/05/31 10:50:49;;;;;;;5.32;4.43;;;44.60;23.70;;;;;;4978966;28;88235;-85
2021/05/31 10:53:19;;;;;;;4.80;4.43;;;44.10;24.00;;;;;;4979447;28;86775;-86
2021/05/31 10:56:05;;;;;;;4.40;4.10;;;43.80;24.20;;;;;;4986702;28;86346;-87
2021/05/31 10:58:33;;;;;;;5.38;4.40;;;44.40;24.00;;;;;;4979383;28;86610;-87
2021/05/31 11:01:01;;;;;;;4.60;4.30;;;45.10;23.80;;;;;;4984978;28;87623;-85
2021/05/31 11:03:29;;;;;;;4.25;4.05;;;44.80;23.10;;;;;;4978269;28;87143;-84
2021/05/31 11:05:55;;;;;;;4.25;3.90;;;44.10;23.20;;;;;;4983155;28;87646;-89
2021/05/31 11:08:31;;;;;;;4.40;4.10;;;44.20;23.70;;;;;;4975139;28;86594;-86
2021/05/31 11:11:01;;;;;;;4.60;4.20;;;43.50;24.10;;;;;;4965526;28;87498;-85
2021/05/31 11:13:28;;;;;;;4.57;4.13;;;43.40;23.80;;;;;;4967960;28;86966;-84
2021/05/31 11:16:06;;;;;;;4.80;4.10;;;43.60;24.10;;;;;;4965318;28;87074;-85
2021/05/31 11:18:46;;;;;;;4.30;4.00;;;43.30;23.50;;;;;;4968343;28;86054;-86
2021/05/31 11:21:25;;;;;;;3.83;3.53;;;43.30;23.90;;;;;;4970739;28;87010;-87
2021/05/31 11:24:07;;;;;;;5.15;3.92;;;43.30;23.60;;;;;;4962735;28;86949;-87
2021/05/31 11:26:37;;;;;;;4.47;3.72;;;43.90;23.20;;;;;;4951092;28;87959;-86
2021/05/31 11:29:06;;;;;;;4.28;3.97;;;43.70;23.10;;;;;;4955790;28;87149;-90
2021/05/31 11:31:33;;;;;;;3.73;3.53;;;43.80;23.40;;;;;;4961586;28;92310;-89
2021/05/31 11:34:00;;;;;;;4.55;4.15;;;43.90;23.50;;;;;;4954219;28;86977;-87
2021/05/31 11:36:38;;;;;;;4.55;4.20;;;44.20;23.30;;;;;;4962646;28;86970;-87
2021/05/31 11:39:13;;;;;;;4.20;3.97;;;44.00;24.10;;;;;;4953848;28;87231;-86
2021/05/31 11:41:46;;;;;;;4.07;3.85;;;44.10;23.30;;;;;;4951813;28;87523;-88
2021/05/31 11:44:15;;;;;;;6.75;6.15;;;44.10;23.30;;;;;;4963728;28;86232;-87
2021/05/31 11:46:48;;;;;;;4.35;4.00;;;44.70;23.60;;;;;;4958655;28;87138;-86
2021/05/31 11:49:14;;;;;;;4.32;4.03;;;45.20;23.40;;;;;;4955727;28;87108;-87
2021/05/31 11:51:39;;;;;;;4.10;3.90;;;45.50;23.00;;;;;;4960022;28;88696;-84
2021/05/31 11:54:06;;;;;;;6.45;6.15;;;45.10;21.80;;;;;;4955508;28;87836;-86
2021/05/31 11:56:33;;;;;;;4.45;4.05;;;45.10;22.20;;;;;;4955684;28;87166;-86
2021/05/31 11:58:59;;;;;;;4.38;4.07;;;44.70;22.60;;;;;;4955657;28;87019;-87
2021/05/31 12:01:28;;;;;;;4.38;4.07;;;44.30;22.50;;;;;;4952522;28;87187;-84
2021/05/31 12:03:53;;;;;;;4.57;4.22;;;44.00;23.20;;;;;;4955048;28;86915;-85
2021/05/31 12:06:19;;;;;;;4.10;3.80;;;44.20;23.00;;;;;;4959936;28;86835;-84
2021/05/31 12:08:47;;;;;;;6.10;5.60;;;44.70;22.50;;;;;;4959524;28;86080;-87
2021/05/31 12:11:24;;;;;;;6.63;6.05;;;44.70;23.20;;;;;;4953562;28;87338;-84
2021/05/31 12:14:02;;;;;;;4.13;3.80;;;44.60;22.70;;;;;;4945880;28;87028;-85
2021/05/31 12:16:28;;;;;;;4.00;3.80;;;44.60;23.40;;;;;;4945964;28;87885;-84
2021/05/31 12:18:55;;;;;;;4.65;4.25;;;44.40;22.80;;;;;;4959082;28;86925;-85
2021/05/31 12:21:20;;;;;;;6.43;5.95;;;44.10;23.30;;;;;;4952536;28;88070;-84
2021/05/31 12:23:50;;;;;;;3.90;3.50;;;44.10;22.90;;;;;;4959001;28;87220;-84
2021/05/31 12:26:21;;;;;;;4.32;3.80;;;43.60;22.90;;;;;;4958823;28;86357;-84
2021/05/31 12:28:50;;;;;;;5.68;5.38;;;43.30;23.20;;;;;;4941014;28;87159;-87
2021/05/31 12:31:16;;;;;;;5.70;5.40;;;43.10;23.20;;;;;;4955022;28;87797;-86
2021/05/31 12:33:42;;;;;;;5.15;4.78;;;42.50;23.10;;;;;;4950404;28;87376;-86
2021/05/31 12:36:09;;;;;;;5.53;5.13;;;42.40;23.40;;;;;;4950376;28;86935;-85
2021/05/31 12:38:39;;;;;;;5.88;5.32;;;42.50;23.10;;;;;;4951138;28;86829;-85
2021/05/31 12:41:05;;;;;;;5.97;5.68;;;42.60;23.40;;;;;;4962843;28;87925;-85
2021/05/31 12:43:32;;;;;;;5.50;5.20;;;42.60;23.10;;;;;;4970205;28;87171;-86
2021/05/31 12:46:00;;;;;;;5.60;5.20;;;42.30;23.50;;;;;;4959389;28;86851;-86
2021/05/31 12:48:26;;;;;;;5.25;5.00;;;42.40;23.70;;;;;;4954725;28;86872;-86
2021/05/31 12:50:55;;;;;;;5.63;5.22;;;42.20;23.50;;;;;;4953170;28;87573;-87
2021/05/31 12:53:21;;;;;;;;;;;42.40;23.50;;;;;;4950790;28;87181;-87
2021/05/31 12:55:48;;;;;;;5.80;5.50;;;42.40;23.20;;;;;;4966265;28;86774;-89
2021/05/31 12:58:18;;;;;;;3.75;3.42;;;41.80;23.20;;;;;;4956222;28;86272;-86
2021/05/31 13:00:46;;;;;;;3.83;3.50;;;41.30;23.50;;;;;;4963050;28;87211;-86
2021/05/31 13:03:13;;;;;;;3.78;3.45;;;41.30;23.50;;;;;;4959270;28;87300;-87
2021/05/31 13:05:41;;;;;;;5.93;5.60;;;40.90;23.90;;;;;;4961775;28;88218;-85
2021/05/31 13:08:10;;;;;;;3.73;3.43;;;40.90;23.80;;;;;;4968253;28;86948;-85
2021/05/31 13:10:39;;;;;;;3.58;3.30;;;40.30;23.90;;;;;;4953550;28;88199;-87
2021/05/31 13:13:07;;;;;;;5.55;5.05;;;40.30;24.00;;;;;;4949219;28;86885;-87
2021/05/31 13:15:45;;;;;;;5.97;5.47;;;40.10;24.00;;;;;;4961374;28;86916;-87
2021/05/31 13:18:16;;;;;;;3.80;3.50;;;39.70;24.60;;;;;;4961686;28;86917;-85
2021/05/31 13:20:43;;;;;;;4.38;3.20;;;39.70;24.00;;;;;;4958383;28;87115;-85
2021/05/31 13:23:13;;;;;;;6.95;5.60;;;39.40;23.60;;;;;;4960374;28;86956;-85
2021/05/31 13:25:47;;;;;;;3.83;3.20;;;39.00;24.10;;;;;;4965592;28;86948;-85
2021/05/31 13:28:22;;;;;;;3.72;3.30;;;38.00;24.20;;;;;;4953835;28;86806;-87
2021/05/31 13:31:00;;;;;;;5.60;5.20;;;37.70;24.20;;;;;;4950085;28;87964;-86
2021/05/31 13:33:26;;;;;;;3.60;3.30;;;37.40;25.00;;;;;;4954938;28;87147;-85
2021/05/31 13:35:54;;;;;;;3.60;3.28;;;37.40;24.30;;;;;;4957196;28;87191;-89
2021/05/31 13:38:20;;;;;;;3.30;3.00;;;37.20;24.50;;;;;;4958937;28;86869;-87
2021/05/31 13:40:48;;;;;;;5.20;4.90;;;36.30;24.30;;;;;;4955940;28;87124;-86
2021/05/31 13:43:20;;;;;;;5.07;4.78;;;36.10;24.50;;;;;;4950232;28;89577;-87
2021/05/31 13:45:49;;;;;;;3.25;2.95;;;35.90;25.20;;;;;;4960471;28;86751;-85
2021/05/31 13:48:16;;;;;;;5.13;4.72;;;35.30;24.90;;;;;;4960432;28;86191;-88
2021/05/31 13:50:45;;;;;;;4.85;4.55;;;33.80;25.40;;;;;;4963881;28;87202;-85
2021/05/31 13:53:12;;;;;;;5.30;4.80;;;33.70;25.90;;;;;;4959561;28;86822;-86
2021/05/31 13:55:38;;;;;;;5.13;4.75;;;33.30;25.60;;;;;;4962049;28;87792;-89
2021/05/31 13:58:05;;;;;;;4.95;4.65;;;33.50;25.90;;;;;;4962539;28;86964;-87
2021/05/31 14:00:32;;;;;;;4.30;3.17;;;33.80;25.90;;;;;;4959164;28;88264;-87
2021/05/31 14:02:59;;;;;;;3.75;3.10;;;33.70;25.20;;;;;;4959807;28;86991;-88
2021/05/31 14:05:30;;;;;;;4.93;4.55;;;33.10;25.80;;;;;;4961953;28;86929;-87
2021/05/31 14:07:57;;;;;;;5.57;5.07;;;32.80;25.60;;;;;;4960988;28;86860;-86
2021/05/31 14:10:24;;;;;;;4.80;4.40;;;32.50;26.60;;;;;;4966289;28;86989;-86
2021/05/31 14:12:49;;;;;;;3.60;3.30;;;32.40;27.00;;;;;;4964942;28;86836;-86
2021/05/31 14:15:18;;;;;;;5.43;5.03;;;32.10;26.50;;;;;;4962184;28;86907;-86
2021/05/31 14:17:44;;;;;;;5.15;4.75;;;;;;;;;;4970945;28;86909;-86
2021/05/31 14:20:12;;;;;;;5.20;4.90;;;31.00;26.40;;;;;;4968504;28;88101;-87
2021/05/31 14:22:39;;;;;;;3.28;2.85;;;30.90;26.70;;;;;;4965334;28;87741;-88
2021/05/31 14:25:08;;;;;;;4.97;4.57;;;30.40;27.80;;;;;;4962697;28;86924;-87
2021/05/31 14:27:34;;;;;;;4.90;4.60;;;29.60;26.50;;;;;;4961012;28;87003;-87
2021/05/31 14:30:00;;;;;;;6.90;5.25;;;30.40;27.70;;;;;;4961544;28;87180;-87
2021/05/31 14:32:27;;;;;;;4.90;4.60;;;;;;;;;;4961804;28;86927;-86
2021/05/31 14:34:53;;;;;;;4.75;4.45;;;30.30;27.70;;;;;;4956755;28;87017;-86
2021/05/31 14:37:18;;;;;;;4.75;4.47;;;30.40;28.10;;;;;;4960482;28;86269;-86
2021/05/31 14:39:44;;;;;;;3.13;2.92;;;30.50;27.70;;;;;;4957687;28;87083;-86
2021/05/31 14:42:10;;;;;;;5.85;5.35;;;29.40;28.00;;;;;;4949949;28;86975;-86
2021/05/31 14:44:36;;;;;;;3.78;3.13;;;29.40;28.20;;;;;;4959567;28;87896;-85
2021/05/31 14:47:02;;;;;;;5.30;4.90;;;;;;;;;;4967420;28;86980;-86
2021/05/31 14:49:28;;;;;;;5.22;4.72;;;28.90;28.20;;;;;;4946239;28;89605;-85
2021/05/31 14:51:54;;;;;;;3.30;3.00;;;28.90;28.60;;;;;;4938149;28;88358;-86
2021/05/31 14:54:21;;;;;;;3.40;2.92;;;28.80;29.40;;;;;;4964528;28;87073;-87
2021/05/31 14:56:48;;;;;;;4.90;4.60;;;28.70;28.60;;;;;;4966048;28;86932;-87
2021/05/31 14:59:14;;;;;;;4.88;4.55;;;;;;;;;;4945777;28;89081;-87
2021/05/31 15:01:40;;;;;;;5.30;4.80;;;28.40;28.80;;;;;;4964077;28;87227;-86
2021/05/31 15:04:06;;;;;;;4.78;4.53;;;28.20;28.60;;;;;;4961872;28;86590;-89
2021/05/31 15:06:32;;;;;;;3.33;3.03;;;28.20;28.90;;;;;;4960576;28;86952;-86
2021/05/31 15:08:58;;;;;;;3.70;2.90;;;28.00;29.30;;;;;;4954455;28;87975;-85
2021/05/31 15:11:25;;;;;;;4.88;4.57;;;27.40;28.70;;;;;;4962481;28;87394;-86
2021/05/31 15:13:52;;;;;;;5.72;5.22;;;27.30;30.10;;;;;;4958837;28;86900;-84
2021/05/31 15:16:17;;;;;;;5.43;5.07;;;27.00;29.90;;;;;;4956604;28;86401;-87
2021/05/31 15:18:43;;;;;;;4.75;3.80;;;27.00;30.40;;;;;;4955797;28;86951;-88
2021/05/31 15:21:09;;;;;;;5.60;5.10;;;26.60;30.00;;;;;;4963806;28;87549;-87
2021/05/31 15:23:35;;;;;;;3.85;3.22;;;26.60;30.20;;;;;;4962603;28;86643;-84
2021/05/31 15:26:01;;;;;;;3.08;2.78;;;26.50;30.60;;;;;;4954545;28;86524;-86
2021/05/31 15:28:26;;;;;;;3.30;3.00;;;26.50;31.90;;;;;;4949516;28;86824;-83
2021/05/31 15:30:52;;;;;;;5.10;4.70;;;26.50;30.30;;;;;;4964679;28;86949;-85
2021/05/31 15:33:18;;;;;;;5.13;4.82;;;26.40;30.70;;;;;;4964252;28;87913;-86
2021/05/31 15:35:44;;;;;;;4.28;3.20;;;26.50;31.40;;;;;;4949766;28;87271;-86
2021/05/31 15:38:09;;;;;;;2.95;2.75;;;26.50;30.60;;;;;;4959861;28;87500;-86
2021/05/31 15:40:35;;;;;;;3.65;2.95;;;26.50;31.00;;;;;;4961054;28;87914;-86
2021/05/31 15:43:01;;;;;;;2.90;2.70;;;26.50;31.20;;;;;;4956465;28;87085;-87
2021/05/31 15:45:27;;;;;;;4.97;4.68;;;26.60;31.00;;;;;;4955421;28;86989;-87
2021/05/31 15:47:54;;;;;;;5.32;5.03;;;26.20;30.10;;;;;;4956266;28;88138;-86
2021/05/31 15:50:20;;;;;;;4.90;4.60;;;26.30;30.80;;;;;;4933626;28;90284;-82
2021/05/31 15:52:46;;;;;;;4.90;4.50;;;26.20;30.80;;;;;;4953727;28;86934;-85
2021/05/31 15:55:14;;;;;;;5.53;5.00;;;25.90;31.50;;;;;;4951797;28;87352;-85
2021/05/31 15:57:40;;;;;;;3.30;3.00;;;26.10;32.20;;;;;;4959145;28;88873;-87
2021/05/31 16:00:08;;;;;;;4.78;4.45;;;25.70;31.40;;;;;;4950074;28;88185;-87
2021/05/31 16:02:34;;;;;;;5.30;4.80;;;25.90;31.40;;;;;;4962956;28;86331;-88